sensor_id;sensor_type;location;lat;lon;timestamp;temperature;humidity
81524;DHT22;70954;49.500;10.416;2023-08-17T00:02:12;25.50;58.30
81524;DHT22;70954;49.500;10.416;2023-08-17T00:04:39;25.50;58.30
81524;DHT22;70954;49.500;10.416;2023-08-17T00:07:05;25.50;58.30
81524;DHT22;70954;49.500;10.416;2023-08-17T00:09:30;25.50;58.40
81524;DHT22;70954;49.500;10.416;2023-08-17T00:11:56;25.40;58.40
81524;DHT22;70954;49.500;10.416;2023-08-17T00:14:21;25.40;58.50
81524;DHT22;70954;49.500;10.416;2023-08-17T00:16:49;25.40;58.60
81524;DHT22;70954;49.500;10.416;2023-08-17T00:19:14;25.40;58.70
81524;DHT22;70954;49.500;10.416;2023-08-17T00:21:40;25.30;58.80
81524;DHT22;70954;49.500;10.416;2023-08-17T00:24:05;25.30;58.90
81524;DHT22;70954;49.500;10.416;2023-08-17T00:26:31;25.30;58.90
81524;DHT22;70954;49.500;10.416;2023-08-17T00:28:56;25.30;59.00
81524;DHT22;70954;49.500;10.416;2023-08-17T00:31:22;25.20;59.10
81524;DHT22;70954;49.500;10.416;2023-08-17T00:33:47;25.20;59.20
81524;DHT22;70954;49.500;10.416;2023-08-17T00:36:13;25.20;59.30
81524;DHT22;70954;49.500;10.416;2023-08-17T00:38:38;25.20;59.50
81524;DHT22;70954;49.500;10.416;2023-08-17T00:41:04;25.20;59.50
81524;DHT22;70954;49.500;10.416;2023-08-17T00:43:29;25.10;59.50
81524;DHT22;70954;49.500;10.416;2023-08-17T00:45:55;25.10;59.50
81524;DHT22;70954;49.500;10.416;2023-08-17T00:48:21;25.00;59.50
81524;DHT22;70954;49.500;10.416;2023-08-17T00:50:48;25.00;59.60
81524;DHT22;70954;49.500;10.416;2023-08-17T00:53:14;25.00;59.60
81524;DHT22;70954;49.500;10.416;2023-08-17T00:55:40;25.00;59.70
81524;DHT22;70954;49.500;10.416;2023-08-17T00:58:05;25.00;59.80
81524;DHT22;70954;49.500;10.416;2023-08-17T01:00:31;25.00;59.90
81524;DHT22;70954;49.500;10.416;2023-08-17T01:02:56;24.90;60.00
81524;DHT22;70954;49.500;10.416;2023-08-17T01:05:23;24.80;59.90
81524;DHT22;70954;49.500;10.416;2023-08-17T01:07:48;24.80;59.90
81524;DHT22;70954;49.500;10.416;2023-08-17T01:10:14;24.80;59.90
81524;DHT22;70954;49.500;10.416;2023-08-17T01:12:55;24.80;60.00
81524;DHT22;70954;49.500;10.416;2023-08-17T01:15:30;24.70;60.20
81524;DHT22;70954;49.500;10.416;2023-08-17T01:18:21;24.70;60.10
81524;DHT22;70954;49.500;10.416;2023-08-17T01:20:49;24.70;60.30
81524;DHT22;70954;49.500;10.416;2023-08-17T01:23:14;24.60;60.20
81524;DHT22;70954;49.500;10.416;2023-08-17T01:25:40;24.60;60.20
81524;DHT22;70954;49.500;10.416;2023-08-17T01:28:06;24.60;60.30
81524;DHT22;70954;49.500;10.416;2023-08-17T01:30:44;24.60;60.30
81524;DHT22;70954;49.500;10.416;2023-08-17T01:33:14;24.50;60.40
81524;DHT22;70954;49.500;10.416;2023-08-17T01:35:51;24.50;60.20
81524;DHT22;70954;49.500;10.416;2023-08-17T01:38:21;24.50;60.20
81524;DHT22;70954;49.500;10.416;2023-08-17T01:40:48;24.40;60.10
81524;DHT22;70954;49.500;10.416;2023-08-17T01:43:16;24.40;60.00
81524;DHT22;70954;49.500;10.416;2023-08-17T01:45:42;24.40;60.00
81524;DHT22;70954;49.500;10.416;2023-08-17T01:48:07;24.30;60.00
81524;DHT22;70954;49.500;10.416;2023-08-17T01:50:33;24.20;60.00
81524;DHT22;70954;49.500;10.416;2023-08-17T01:52:58;24.20;60.00
81524;DHT22;70954;49.500;10.416;2023-08-17T01:55:23;24.20;60.00
81524;DHT22;70954;49.500;10.416;2023-08-17T01:57:49;24.00;60.00
81524;DHT22;70954;49.500;10.416;2023-08-17T02:00:15;24.00;60.00
81524;DHT22;70954;49.500;10.416;2023-08-17T02:02:41;24.00;60.10
81524;DHT22;70954;49.500;10.416;2023-08-17T02:05:06;23.90;60.20
81524;DHT22;70954;49.500;10.416;2023-08-17T02:07:32;23.80;60.30
81524;DHT22;70954;49.500;10.416;2023-08-17T02:09:58;23.80;60.40
81524;DHT22;70954;49.500;10.416;2023-08-17T02:12:23;23.70;60.40
81524;DHT22;70954;49.500;10.416;2023-08-17T02:14:48;23.60;60.60
81524;DHT22;70954;49.500;10.416;2023-08-17T02:17:14;23.60;60.70
81524;DHT22;70954;49.500;10.416;2023-08-17T02:19:39;23.60;60.80
81524;DHT22;70954;49.500;10.416;2023-08-17T02:22:05;23.50;61.00
81524;DHT22;70954;49.500;10.416;2023-08-17T02:24:30;23.50;61.10
81524;DHT22;70954;49.500;10.416;2023-08-17T02:26:56;23.50;61.20
81524;DHT22;70954;49.500;10.416;2023-08-17T02:29:21;23.40;61.20
81524;DHT22;70954;49.500;10.416;2023-08-17T02:31:47;23.40;61.20
81524;DHT22;70954;49.500;10.416;2023-08-17T02:34:12;23.40;61.20
81524;DHT22;70954;49.500;10.416;2023-08-17T02:36:38;23.30;61.30
81524;DHT22;70954;49.500;10.416;2023-08-17T02:39:03;23.30;61.40
81524;DHT22;70954;49.500;10.416;2023-08-17T02:41:29;23.20;61.40
81524;DHT22;70954;49.500;10.416;2023-08-17T02:43:54;23.20;61.50
81524;DHT22;70954;49.500;10.416;2023-08-17T02:46:19;23.20;61.60
81524;DHT22;70954;49.500;10.416;2023-08-17T02:48:45;23.20;61.80
81524;DHT22;70954;49.500;10.416;2023-08-17T02:51:10;23.10;61.90
81524;DHT22;70954;49.500;10.416;2023-08-17T02:53:36;23.10;61.90
81524;DHT22;70954;49.500;10.416;2023-08-17T02:56:01;23.10;62.00
81524;DHT22;70954;49.500;10.416;2023-08-17T02:58:27;23.10;62.00
81524;DHT22;70954;49.500;10.416;2023-08-17T03:00:52;23.00;62.10
81524;DHT22;70954;49.500;10.416;2023-08-17T03:03:18;23.00;62.10
81524;DHT22;70954;49.500;10.416;2023-08-17T03:05:43;22.90;62.20
81524;DHT22;70954;49.500;10.416;2023-08-17T03:08:09;22.90;62.20
81524;DHT22;70954;49.500;10.416;2023-08-17T03:10:34;22.90;62.30
81524;DHT22;70954;49.500;10.416;2023-08-17T03:13:00;22.90;62.30
81524;DHT22;70954;49.500;10.416;2023-08-17T03:15:25;22.80;62.40
81524;DHT22;70954;49.500;10.416;2023-08-17T03:17:51;22.80;62.50
81524;DHT22;70954;49.500;10.416;2023-08-17T03:20:16;22.80;62.50
81524;DHT22;70954;49.500;10.416;2023-08-17T03:22:42;22.70;62.50
81524;DHT22;70954;49.500;10.416;2023-08-17T03:25:07;22.70;62.60
81524;DHT22;70954;49.500;10.416;2023-08-17T03:27:33;22.70;62.70
81524;DHT22;70954;49.500;10.416;2023-08-17T03:29:59;22.70;62.70
81524;DHT22;70954;49.500;10.416;2023-08-17T03:32:24;22.60;62.70
81524;DHT22;70954;49.500;10.416;2023-08-17T03:34:49;22.60;62.60
81524;DHT22;70954;49.500;10.416;2023-08-17T03:37:15;22.60;62.70
81524;DHT22;70954;49.500;10.416;2023-08-17T03:39:40;22.50;62.80
81524;DHT22;70954;49.500;10.416;2023-08-17T03:42:06;22.50;62.90
81524;DHT22;70954;49.500;10.416;2023-08-17T03:44:32;22.50;62.90
81524;DHT22;70954;49.500;10.416;2023-08-17T03:46:58;22.50;62.90
81524;DHT22;70954;49.500;10.416;2023-08-17T03:49:23;22.50;62.90
81524;DHT22;70954;49.500;10.416;2023-08-17T03:54:17;22.30;63.00
81524;DHT22;70954;49.500;10.416;2023-08-17T03:56:42;22.30;63.00
81524;DHT22;70954;49.500;10.416;2023-08-17T03:59:08;22.30;63.20
81524;DHT22;70954;49.500;10.416;2023-08-17T04:01:33;22.20;63.20
81524;DHT22;70954;49.500;10.416;2023-08-17T04:03:59;22.20;63.20
81524;DHT22;70954;49.500;10.416;2023-08-17T04:06:24;22.20;63.30
81524;DHT22;70954;49.500;10.416;2023-08-17T04:08:50;22.10;63.40
81524;DHT22;70954;49.500;10.416;2023-08-17T04:11:15;22.10;63.50
81524;DHT22;70954;49.500;10.416;2023-08-17T04:13:40;22.00;63.60
81524;DHT22;70954;49.500;10.416;2023-08-17T04:16:06;22.00;63.70
81524;DHT22;70954;49.500;10.416;2023-08-17T04:18:31;22.00;63.80
81524;DHT22;70954;49.500;10.416;2023-08-17T04:20:57;22.00;63.90
81524;DHT22;70954;49.500;10.416;2023-08-17T04:23:22;21.90;64.10
81524;DHT22;70954;49.500;10.416;2023-08-17T04:25:48;21.90;64.20
81524;DHT22;70954;49.500;10.416;2023-08-17T04:28:13;21.90;64.30
81524;DHT22;70954;49.500;10.416;2023-08-17T04:30:39;21.90;64.30
81524;DHT22;70954;49.500;10.416;2023-08-17T04:33:05;21.90;64.40
81524;DHT22;70954;49.500;10.416;2023-08-17T04:35:30;21.90;64.50
81524;DHT22;70954;49.500;10.416;2023-08-17T04:37:56;21.90;64.40
81524;DHT22;70954;49.500;10.416;2023-08-17T04:40:21;21.90;64.40
81524;DHT22;70954;49.500;10.416;2023-08-17T04:42:47;21.90;64.40
81524;DHT22;70954;49.500;10.416;2023-08-17T04:45:12;21.90;64.50
81524;DHT22;70954;49.500;10.416;2023-08-17T04:47:38;21.90;64.50
81524;DHT22;70954;49.500;10.416;2023-08-17T04:50:03;21.90;64.60
81524;DHT22;70954;49.500;10.416;2023-08-17T04:52:29;21.90;64.60
81524;DHT22;70954;49.500;10.416;2023-08-17T04:54:54;21.90;64.70
81524;DHT22;70954;49.500;10.416;2023-08-17T04:57:20;21.90;64.60
81524;DHT22;70954;49.500;10.416;2023-08-17T04:59:45;21.90;64.60
81524;DHT22;70954;49.500;10.416;2023-08-17T05:02:11;21.90;64.70
81524;DHT22;70954;49.500;10.416;2023-08-17T05:04:36;21.90;64.80
81524;DHT22;70954;49.500;10.416;2023-08-17T05:07:02;21.90;64.90
81524;DHT22;70954;49.500;10.416;2023-08-17T05:09:27;21.90;64.90
81524;DHT22;70954;49.500;10.416;2023-08-17T05:11:53;21.80;65.00
81524;DHT22;70954;49.500;10.416;2023-08-17T05:14:18;21.80;65.00
81524;DHT22;70954;49.500;10.416;2023-08-17T05:16:44;21.80;65.10
81524;DHT22;70954;49.500;10.416;2023-08-17T05:19:09;21.80;65.10
81524;DHT22;70954;49.500;10.416;2023-08-17T05:21:35;21.80;65.10
81524;DHT22;70954;49.500;10.416;2023-08-17T05:24:00;21.80;65.10
81524;DHT22;70954;49.500;10.416;2023-08-17T05:26:26;21.80;65.20
81524;DHT22;70954;49.500;10.416;2023-08-17T05:28:51;21.80;65.30
81524;DHT22;70954;49.500;10.416;2023-08-17T05:31:17;21.80;65.50
81524;DHT22;70954;49.500;10.416;2023-08-17T05:33:42;21.80;65.60
81524;DHT22;70954;49.500;10.416;2023-08-17T05:36:08;21.90;65.60
81524;DHT22;70954;49.500;10.416;2023-08-17T05:38:33;21.90;65.70
81524;DHT22;70954;49.500;10.416;2023-08-17T05:40:59;21.90;65.70
81524;DHT22;70954;49.500;10.416;2023-08-17T05:43:25;21.90;65.80
81524;DHT22;70954;49.500;10.416;2023-08-17T05:45:51;21.90;65.90
81524;DHT22;70954;49.500;10.416;2023-08-17T05:48:19;21.90;66.00
81524;DHT22;70954;49.500;10.416;2023-08-17T05:50:44;22.00;66.10
81524;DHT22;70954;49.500;10.416;2023-08-17T05:53:10;22.00;66.10
81524;DHT22;70954;49.500;10.416;2023-08-17T05:55:35;22.00;66.10
81524;DHT22;70954;49.500;10.416;2023-08-17T05:58:02;22.00;66.10
81524;DHT22;70954;49.500;10.416;2023-08-17T06:00:27;22.10;66.10
81524;DHT22;70954;49.500;10.416;2023-08-17T06:02:53;22.10;66.00
81524;DHT22;70954;49.500;10.416;2023-08-17T06:05:18;22.20;66.10
81524;DHT22;70954;49.500;10.416;2023-08-17T06:07:43;22.20;66.10
81524;DHT22;70954;49.500;10.416;2023-08-17T06:10:09;22.20;66.20
81524;DHT22;70954;49.500;10.416;2023-08-17T06:12:35;22.30;66.20
81524;DHT22;70954;49.500;10.416;2023-08-17T06:15:05;22.30;66.20
81524;DHT22;70954;49.500;10.416;2023-08-17T06:17:30;22.40;66.30
81524;DHT22;70954;49.500;10.416;2023-08-17T06:19:56;22.50;66.30
81524;DHT22;70954;49.500;10.416;2023-08-17T06:22:21;22.50;66.30
81524;DHT22;70954;49.500;10.416;2023-08-17T06:24:46;22.50;66.30
81524;DHT22;70954;49.500;10.416;2023-08-17T06:27:14;22.60;66.40
81524;DHT22;70954;49.500;10.416;2023-08-17T06:29:40;22.60;66.40
81524;DHT22;70954;49.500;10.416;2023-08-17T06:32:06;22.70;66.30
81524;DHT22;70954;49.500;10.416;2023-08-17T06:34:31;22.80;66.30
81524;DHT22;70954;49.500;10.416;2023-08-17T06:37:02;22.80;66.30
81524;DHT22;70954;49.500;10.416;2023-08-17T06:39:28;22.90;66.30
81524;DHT22;70954;49.500;10.416;2023-08-17T06:41:54;23.00;66.20
81524;DHT22;70954;49.500;10.416;2023-08-17T06:44:19;23.00;66.20
81524;DHT22;70954;49.500;10.416;2023-08-17T06:46:44;23.10;66.10
81524;DHT22;70954;49.500;10.416;2023-08-17T06:49:11;23.10;66.10
81524;DHT22;70954;49.500;10.416;2023-08-17T06:51:37;23.20;66.10
81524;DHT22;70954;49.500;10.416;2023-08-17T06:54:02;23.30;66.10
81524;DHT22;70954;49.500;10.416;2023-08-17T06:56:28;23.30;66.10
81524;DHT22;70954;49.500;10.416;2023-08-17T06:58:53;23.40;66.10
81524;DHT22;70954;49.500;10.416;2023-08-17T07:01:19;23.50;66.10
81524;DHT22;70954;49.500;10.416;2023-08-17T07:03:44;23.60;66.00
81524;DHT22;70954;49.500;10.416;2023-08-17T07:06:10;23.60;66.00
81524;DHT22;70954;49.500;10.416;2023-08-17T07:08:35;23.60;66.00
81524;DHT22;70954;49.500;10.416;2023-08-17T07:11:01;23.80;66.00
81524;DHT22;70954;49.500;10.416;2023-08-17T07:13:26;23.90;65.90
81524;DHT22;70954;49.500;10.416;2023-08-17T07:15:52;24.00;65.90
81524;DHT22;70954;49.500;10.416;2023-08-17T07:18:18;24.00;65.70
81524;DHT22;70954;49.500;10.416;2023-08-17T07:20:43;24.20;65.60
81524;DHT22;70954;49.500;10.416;2023-08-17T07:23:08;24.20;65.50
81524;DHT22;70954;49.500;10.416;2023-08-17T07:25:34;24.30;65.40
81524;DHT22;70954;49.500;10.416;2023-08-17T07:27:59;24.40;65.40
81524;DHT22;70954;49.500;10.416;2023-08-17T07:30:25;24.50;65.40
81524;DHT22;70954;49.500;10.416;2023-08-17T07:32:50;24.60;65.30
81524;DHT22;70954;49.500;10.416;2023-08-17T07:35:16;24.70;65.20
81524;DHT22;70954;49.500;10.416;2023-08-17T07:37:41;24.80;65.20
81524;DHT22;70954;49.500;10.416;2023-08-17T07:40:07;24.90;65.10
81524;DHT22;70954;49.500;10.416;2023-08-17T07:42:33;25.00;65.00
81524;DHT22;70954;49.500;10.416;2023-08-17T07:44:58;25.00;64.80
81524;DHT22;70954;49.500;10.416;2023-08-17T07:47:24;25.10;64.70
81524;DHT22;70954;49.500;10.416;2023-08-17T07:49:49;25.20;64.60
81524;DHT22;70954;49.500;10.416;2023-08-17T07:52:15;25.40;64.60
81524;DHT22;70954;49.500;10.416;2023-08-17T07:54:40;25.40;64.50
81524;DHT22;70954;49.500;10.416;2023-08-17T07:57:06;25.50;64.30
81524;DHT22;70954;49.500;10.416;2023-08-17T07:59:31;25.60;64.20
81524;DHT22;70954;49.500;10.416;2023-08-17T08:01:57;25.70;64.00
81524;DHT22;70954;49.500;10.416;2023-08-17T08:04:22;25.80;63.80
81524;DHT22;70954;49.500;10.416;2023-08-17T08:06:47;25.90;63.70
81524;DHT22;70954;49.500;10.416;2023-08-17T08:09:13;26.00;63.60
81524;DHT22;70954;49.500;10.416;2023-08-17T08:11:38;26.10;63.50
81524;DHT22;70954;49.500;10.416;2023-08-17T08:14:04;26.20;63.40
81524;DHT22;70954;49.500;10.416;2023-08-17T08:16:29;26.30;63.20
81524;DHT22;70954;49.500;10.416;2023-08-17T08:18:55;26.40;63.00
81524;DHT22;70954;49.500;10.416;2023-08-17T08:21:20;26.50;62.90
81524;DHT22;70954;49.500;10.416;2023-08-17T08:23:46;26.60;62.80
81524;DHT22;70954;49.500;10.416;2023-08-17T08:26:11;26.70;62.60
81524;DHT22;70954;49.500;10.416;2023-08-17T08:28:37;26.70;62.70
81524;DHT22;70954;49.500;10.416;2023-08-17T08:31:02;26.80;62.70
81524;DHT22;70954;49.500;10.416;2023-08-17T08:33:28;27.00;62.50
81524;DHT22;70954;49.500;10.416;2023-08-17T08:35:53;27.10;62.20
81524;DHT22;70954;49.500;10.416;2023-08-17T08:38:19;27.20;62.10
81524;DHT22;70954;49.500;10.416;2023-08-17T08:40:47;27.30;62.00
81524;DHT22;70954;49.500;10.416;2023-08-17T08:43:13;27.40;61.90
81524;DHT22;70954;49.500;10.416;2023-08-17T08:45:41;27.50;61.90
81524;DHT22;70954;49.500;10.416;2023-08-17T08:48:18;27.60;61.60
81524;DHT22;70954;49.500;10.416;2023-08-17T08:50:46;27.70;61.30
81524;DHT22;70954;49.500;10.416;2023-08-17T08:53:14;27.80;61.40
81524;DHT22;70954;49.500;10.416;2023-08-17T08:55:47;27.90;61.20
81524;DHT22;70954;49.500;10.416;2023-08-17T08:58:16;28.10;60.80
81524;DHT22;70954;49.500;10.416;2023-08-17T09:00:41;28.10;60.70
81524;DHT22;70954;49.500;10.416;2023-08-17T09:03:07;28.30;60.20
81524;DHT22;70954;49.500;10.416;2023-08-17T09:05:34;28.30;60.00
81524;DHT22;70954;49.500;10.416;2023-08-17T09:08:00;28.50;60.00
81524;DHT22;70954;49.500;10.416;2023-08-17T09:10:27;28.50;60.00
81524;DHT22;70954;49.500;10.416;2023-08-17T09:12:52;28.60;59.80
81524;DHT22;70954;49.500;10.416;2023-08-17T09:15:18;28.70;59.50
81524;DHT22;70954;49.500;10.416;2023-08-17T09:17:43;28.80;59.30
81524;DHT22;70954;49.500;10.416;2023-08-17T09:20:09;28.90;59.00
81524;DHT22;70954;49.500;10.416;2023-08-17T09:22:43;29.00;58.80
81524;DHT22;70954;49.500;10.416;2023-08-17T09:25:09;29.10;58.20
81524;DHT22;70954;49.500;10.416;2023-08-17T09:27:37;29.20;58.20
81524;DHT22;70954;49.500;10.416;2023-08-17T09:30:09;29.20;57.90
81524;DHT22;70954;49.500;10.416;2023-08-17T09:32:35;29.30;57.60
81524;DHT22;70954;49.500;10.416;2023-08-17T09:35:04;29.40;57.60
81524;DHT22;70954;49.500;10.416;2023-08-17T09:37:30;29.40;57.60
81524;DHT22;70954;49.500;10.416;2023-08-17T09:39:55;29.50;57.60
81524;DHT22;70954;49.500;10.416;2023-08-17T09:42:21;29.50;57.50
81524;DHT22;70954;49.500;10.416;2023-08-17T09:44:47;29.60;57.40
81524;DHT22;70954;49.500;10.416;2023-08-17T09:47:12;29.70;57.20
81524;DHT22;70954;49.500;10.416;2023-08-17T09:49:38;29.70;57.10
81524;DHT22;70954;49.500;10.416;2023-08-17T09:52:04;29.80;56.90
81524;DHT22;70954;49.500;10.416;2023-08-17T09:54:31;29.90;56.50
81524;DHT22;70954;49.500;10.416;2023-08-17T09:56:58;30.00;56.10
81524;DHT22;70954;49.500;10.416;2023-08-17T09:59:23;30.00;55.80
81524;DHT22;70954;49.500;10.416;2023-08-17T10:01:50;30.00;55.70
81524;DHT22;70954;49.500;10.416;2023-08-17T10:04:20;30.10;55.80
81524;DHT22;70954;49.500;10.416;2023-08-17T10:06:58;30.10;55.70
81524;DHT22;70954;49.500;10.416;2023-08-17T10:09:25;30.20;55.80
81524;DHT22;70954;49.500;10.416;2023-08-17T10:11:57;30.30;55.60
81524;DHT22;70954;49.500;10.416;2023-08-17T10:14:28;30.30;55.30
81524;DHT22;70954;49.500;10.416;2023-08-17T10:16:59;30.30;55.30
81524;DHT22;70954;49.500;10.416;2023-08-17T10:19:36;30.50;55.00
81524;DHT22;70954;49.500;10.416;2023-08-17T10:22:08;30.50;54.80
81524;DHT22;70954;49.500;10.416;2023-08-17T10:24:36;30.60;54.80
81524;DHT22;70954;49.500;10.416;2023-08-17T10:27:04;30.60;54.70
81524;DHT22;70954;49.500;10.416;2023-08-17T10:29:31;30.70;54.70
81524;DHT22;70954;49.500;10.416;2023-08-17T10:31:57;30.80;54.60
81524;DHT22;70954;49.500;10.416;2023-08-17T10:34:23;30.80;54.30
81524;DHT22;70954;49.500;10.416;2023-08-17T10:36:49;30.90;53.90
81524;DHT22;70954;49.500;10.416;2023-08-17T10:39:23;31.00;53.70
81524;DHT22;70954;49.500;10.416;2023-08-17T10:41:50;31.10;52.90
81524;DHT22;70954;49.500;10.416;2023-08-17T10:44:38;31.10;53.40
81524;DHT22;70954;49.500;10.416;2023-08-17T10:47:20;31.20;52.90
81524;DHT22;70954;49.500;10.416;2023-08-17T10:49:48;31.20;52.90
81524;DHT22;70954;49.500;10.416;2023-08-17T10:52:14;31.30;53.20
81524;DHT22;70954;49.500;10.416;2023-08-17T10:54:41;31.30;53.00
81524;DHT22;70954;49.500;10.416;2023-08-17T10:57:37;31.40;52.60
81524;DHT22;70954;49.500;10.416;2023-08-17T11:00:06;31.40;51.80
81524;DHT22;70954;49.500;10.416;2023-08-17T11:02:32;31.50;52.40
81524;DHT22;70954;49.500;10.416;2023-08-17T11:05:00;31.50;52.30
81524;DHT22;70954;49.500;10.416;2023-08-17T11:07:27;31.60;52.00
81524;DHT22;70954;49.500;10.416;2023-08-17T11:09:53;31.70;51.90
81524;DHT22;70954;49.500;10.416;2023-08-17T11:12:26;31.70;51.50
81524;DHT22;70954;49.500;10.416;2023-08-17T11:14:52;31.80;50.60
81524;DHT22;70954;49.500;10.416;2023-08-17T11:17:20;31.80;51.00
81524;DHT22;70954;49.500;10.416;2023-08-17T11:19:46;31.80;50.80
81524;DHT22;70954;49.500;10.416;2023-08-17T11:22:11;31.80;51.00
81524;DHT22;70954;49.500;10.416;2023-08-17T11:24:38;31.90;51.10
81524;DHT22;70954;49.500;10.416;2023-08-17T11:27:04;31.90;50.90
81524;DHT22;70954;49.500;10.416;2023-08-17T11:29:31;32.00;50.50
81524;DHT22;70954;49.500;10.416;2023-08-17T11:31:57;32.00;50.00
81524;DHT22;70954;49.500;10.416;2023-08-17T11:34:23;32.00;49.90
81524;DHT22;70954;49.500;10.416;2023-08-17T11:36:48;32.00;49.70
81524;DHT22;70954;49.500;10.416;2023-08-17T11:39:14;32.00;49.80
81524;DHT22;70954;49.500;10.416;2023-08-17T11:41:39;32.00;49.60
81524;DHT22;70954;49.500;10.416;2023-08-17T11:44:05;32.00;49.50
81524;DHT22;70954;49.500;10.416;2023-08-17T11:46:32;32.10;49.30
81524;DHT22;70954;49.500;10.416;2023-08-17T11:49:00;32.10;49.20
81524;DHT22;70954;49.500;10.416;2023-08-17T11:51:30;32.20;49.00
81524;DHT22;70954;49.500;10.416;2023-08-17T11:53:58;32.20;48.50
81524;DHT22;70954;49.500;10.416;2023-08-17T11:56:24;32.20;48.60
81524;DHT22;70954;49.500;10.416;2023-08-17T11:58:49;32.10;48.60
81524;DHT22;70954;49.500;10.416;2023-08-17T12:01:15;32.20;48.90
81524;DHT22;70954;49.500;10.416;2023-08-17T12:03:40;32.20;48.90
81524;DHT22;70954;49.500;10.416;2023-08-17T12:06:06;32.20;48.80
81524;DHT22;70954;49.500;10.416;2023-08-17T12:08:31;32.30;49.00
81524;DHT22;70954;49.500;10.416;2023-08-17T12:10:57;32.40;48.60
81524;DHT22;70954;49.500;10.416;2023-08-17T12:13:33;32.40;48.70
81524;DHT22;70954;49.500;10.416;2023-08-17T12:15:58;32.50;48.50
81524;DHT22;70954;49.500;10.416;2023-08-17T12:18:25;32.50;48.90
81524;DHT22;70954;49.500;10.416;2023-08-17T12:20:54;32.60;48.90
81524;DHT22;70954;49.500;10.416;2023-08-17T12:23:20;32.70;48.30
81524;DHT22;70954;49.500;10.416;2023-08-17T12:25:45;32.80;48.30
81524;DHT22;70954;49.500;10.416;2023-08-17T12:28:14;32.80;47.90
81524;DHT22;70954;49.500;10.416;2023-08-17T12:30:40;33.00;47.70
81524;DHT22;70954;49.500;10.416;2023-08-17T12:33:05;33.00;47.80
81524;DHT22;70954;49.500;10.416;2023-08-17T12:35:31;33.00;47.60
81524;DHT22;70954;49.500;10.416;2023-08-17T12:37:57;33.10;47.40
81524;DHT22;70954;49.500;10.416;2023-08-17T12:40:23;33.20;47.30
81524;DHT22;70954;49.500;10.416;2023-08-17T12:42:49;33.20;47.00
81524;DHT22;70954;49.500;10.416;2023-08-17T12:45:15;33.30;46.60
81524;DHT22;70954;49.500;10.416;2023-08-17T12:47:41;33.30;46.50
81524;DHT22;70954;49.500;10.416;2023-08-17T12:50:07;33.40;46.50
81524;DHT22;70954;49.500;10.416;2023-08-17T12:52:32;33.40;46.40
81524;DHT22;70954;49.500;10.416;2023-08-17T12:54:58;33.50;46.10
81524;DHT22;70954;49.500;10.416;2023-08-17T12:57:23;33.50;45.90
81524;DHT22;70954;49.500;10.416;2023-08-17T12:59:49;33.50;45.70
81524;DHT22;70954;49.500;10.416;2023-08-17T13:02:14;33.50;45.60
81524;DHT22;70954;49.500;10.416;2023-08-17T13:04:41;33.50;45.50
81524;DHT22;70954;49.500;10.416;2023-08-17T13:07:06;33.50;45.30
81524;DHT22;70954;49.500;10.416;2023-08-17T13:09:32;33.50;45.30
81524;DHT22;70954;49.500;10.416;2023-08-17T13:11:57;33.40;45.30
81524;DHT22;70954;49.500;10.416;2023-08-17T13:14:23;33.40;45.30
81524;DHT22;70954;49.500;10.416;2023-08-17T13:16:51;33.40;45.30
81524;DHT22;70954;49.500;10.416;2023-08-17T13:19:18;33.40;45.20
81524;DHT22;70954;49.500;10.416;2023-08-17T13:21:43;33.40;45.30
81524;DHT22;70954;49.500;10.416;2023-08-17T13:24:09;33.40;45.50
81524;DHT22;70954;49.500;10.416;2023-08-17T13:26:37;33.40;45.40
81524;DHT22;70954;49.500;10.416;2023-08-17T13:29:02;33.40;45.10
81524;DHT22;70954;49.500;10.416;2023-08-17T13:31:28;33.40;45.00
81524;DHT22;70954;49.500;10.416;2023-08-17T13:33:53;33.40;45.00
81524;DHT22;70954;49.500;10.416;2023-08-17T13:36:19;33.30;45.10
81524;DHT22;70954;49.500;10.416;2023-08-17T13:38:44;33.30;44.90
81524;DHT22;70954;49.500;10.416;2023-08-17T13:41:10;33.30;44.90
81524;DHT22;70954;49.500;10.416;2023-08-17T13:43:35;33.30;44.90
81524;DHT22;70954;49.500;10.416;2023-08-17T13:46:01;33.20;44.90
81524;DHT22;70954;49.500;10.416;2023-08-17T13:48:27;33.20;45.10
81524;DHT22;70954;49.500;10.416;2023-08-17T13:50:52;33.20;45.10
81524;DHT22;70954;49.500;10.416;2023-08-17T13:56:20;33.10;44.90
81524;DHT22;70954;49.500;10.416;2023-08-17T13:58:46;33.00;45.20
81524;DHT22;70954;49.500;10.416;2023-08-17T14:01:12;33.00;45.40
81524;DHT22;70954;49.500;10.416;2023-08-17T14:03:37;33.00;45.70
81524;DHT22;70954;49.500;10.416;2023-08-17T14:06:03;32.90;46.00
81524;DHT22;70954;49.500;10.416;2023-08-17T14:08:28;32.80;46.00
81524;DHT22;70954;49.500;10.416;2023-08-17T14:10:54;32.70;45.90
81524;DHT22;70954;49.500;10.416;2023-08-17T14:13:19;32.60;45.80
81524;DHT22;70954;49.500;10.416;2023-08-17T14:15:45;32.50;45.70
81524;DHT22;70954;49.500;10.416;2023-08-17T14:18:10;32.40;45.90
81524;DHT22;70954;49.500;10.416;2023-08-17T14:20:36;32.20;46.00
81524;DHT22;70954;49.500;10.416;2023-08-17T14:23:01;32.00;45.50
81524;DHT22;70954;49.500;10.416;2023-08-17T14:25:26;31.70;44.90
81524;DHT22;70954;49.500;10.416;2023-08-17T14:27:52;31.40;44.90
81524;DHT22;70954;49.500;10.416;2023-08-17T14:30:17;30.90;45.00
81524;DHT22;70954;49.500;10.416;2023-08-17T14:32:43;30.40;45.10
81524;DHT22;70954;49.500;10.416;2023-08-17T14:35:08;29.70;46.00
81524;DHT22;70954;49.500;10.416;2023-08-17T14:37:34;28.80;48.20
81524;DHT22;70954;49.500;10.416;2023-08-17T14:39:59;28.10;48.90
81524;DHT22;70954;49.500;10.416;2023-08-17T14:42:25;27.30;49.80
81524;DHT22;70954;49.500;10.416;2023-08-17T14:44:50;26.60;51.10
81524;DHT22;70954;49.500;10.416;2023-08-17T14:47:16;26.00;52.60
81524;DHT22;70954;49.500;10.416;2023-08-17T14:49:42;25.40;53.90
81524;DHT22;70954;49.500;10.416;2023-08-17T14:52:07;25.00;55.20
81524;DHT22;70954;49.500;10.416;2023-08-17T14:54:33;24.40;57.90
81524;DHT22;70954;49.500;10.416;2023-08-17T14:56:58;23.90;58.10
81524;DHT22;70954;49.500;10.416;2023-08-17T14:59:24;23.50;59.00
81524;DHT22;70954;49.500;10.416;2023-08-17T15:01:49;23.20;59.10
81524;DHT22;70954;49.500;10.416;2023-08-17T15:04:15;22.90;59.50
81524;DHT22;70954;49.500;10.416;2023-08-17T15:06:40;22.70;60.00
81524;DHT22;70954;49.500;10.416;2023-08-17T15:09:05;22.50;60.50
81524;DHT22;70954;49.500;10.416;2023-08-17T15:11:31;22.30;60.90
81524;DHT22;70954;49.500;10.416;2023-08-17T15:13:56;22.20;61.30
81524;DHT22;70954;49.500;10.416;2023-08-17T15:16:22;22.10;61.30